sensor_id;sensor_type;location;lat;lon;timestamp;pressure;altitude;pressure_sealevel;temperature;humidity
78671;BME280;68277;52.724;6.516;2023-04-25T00:01:05;100960.66;;;6.28;88.26
78671;BME280;68277;52.724;6.516;2023-04-25T00:03:32;100909.06;;;5.97;88.17
78671;BME280;68277;52.724;6.516;2023-04-25T00:05:58;100923.97;;;5.98;88.04
78671;BME280;68277;52.724;6.516;2023-04-25T00:08:29;100948.47;;;5.98;88.01
78671;BME280;68277;52.724;6.516;2023-04-25T00:10:54;100965.97;;;6.08;88.08
78671;BME280;68277;52.724;6.516;2023-04-25T00:13:20;100909.09;;;5.71;88.45
78671;BME280;68277;52.724;6.516;2023-04-25T00:15:46;100929.22;;;5.81;88.36
78671;BME280;68277;52.724;6.516;2023-04-25T00:18:14;100940.59;;;5.80;88.89
78671;BME280;68277;52.724;6.516;2023-04-25T00:20:39;100930.97;;;5.70;88.36
78671;BME280;68277;52.724;6.516;2023-04-25T00:23:05;100950.22;;;5.75;88.53
78671;BME280;68277;52.724;6.516;2023-04-25T00:25:31;100939.75;;;5.62;88.97
78671;BME280;68277;52.724;6.516;2023-04-25T00:27:56;100972.13;;;5.79;88.51
78671;BME280;68277;52.724;6.516;2023-04-25T00:30:23;100916.16;;;5.34;89.45
78671;BME280;68277;52.724;6.516;2023-04-25T00:32:49;100929.25;;;5.43;88.61
78671;BME280;68277;52.724;6.516;2023-04-25T00:35:15;100938.00;;;5.42;88.84
78671;BME280;68277;52.724;6.516;2023-04-25T00:37:40;100920.50;;;5.29;89.08
78671;BME280;68277;52.724;6.516;2023-04-25T00:40:06;100936.25;;;5.34;89.38
78671;BME280;68277;52.724;6.516;2023-04-25T00:42:32;100978.25;;;5.57;89.19
78671;BME280;68277;52.724;6.516;2023-04-25T00:44:59;100947.63;;;5.34;89.27
78671;BME280;68277;52.724;6.516;2023-04-25T00:47:25;100983.47;;;5.53;89.32
78671;BME280;68277;52.724;6.516;2023-04-25T00:49:50;100918.75;;;5.15;89.45
78671;BME280;68277;52.724;6.516;2023-04-25T00:52:17;100984.34;;;5.46;89.59
78671;BME280;68277;52.724;6.516;2023-04-25T00:54:43;100990.50;;;5.45;89.05
78671;BME280;68277;52.724;6.516;2023-04-25T00:57:08;100986.13;;;5.43;89.35
78671;BME280;68277;52.724;6.516;2023-04-25T00:59:36;100963.38;;;5.27;89.56
78671;BME280;68277;52.724;6.516;2023-04-25T01:02:02;100887.22;;;4.78;89.34
78671;BME280;68277;52.724;6.516;2023-04-25T01:04:28;100916.09;;;4.94;89.50
78671;BME280;68277;52.724;6.516;2023-04-25T01:06:54;100992.22;;;5.37;89.46
78671;BME280;68277;52.724;6.516;2023-04-25T01:09:19;100993.13;;;5.36;89.81
78671;BME280;68277;52.724;6.516;2023-04-25T01:11:45;100918.72;;;4.91;90.12
78671;BME280;68277;52.724;6.516;2023-04-25T01:14:11;100902.97;;;4.86;89.75
78671;BME280;68277;52.724;6.516;2023-04-25T01:16:37;100999.25;;;5.38;89.33
78671;BME280;68277;52.724;6.516;2023-04-25T01:19:09;100927.47;;;5.02;89.39
78671;BME280;68277;52.724;6.516;2023-04-25T01:21:36;100845.25;;;4.56;89.37
78671;BME280;68277;52.724;6.516;2023-04-25T01:24:02;100940.59;;;5.12;88.81
78671;BME280;68277;52.724;6.516;2023-04-25T01:26:28;100920.44;;;4.90;89.40
78671;BME280;68277;52.724;6.516;2023-04-25T01:28:54;100961.59;;;5.09;89.34
78671;BME280;68277;52.724;6.516;2023-04-25T01:31:20;100974.69;;;5.14;89.82
78671;BME280;68277;52.724;6.516;2023-04-25T01:33:47;100946.69;;;4.95;89.55
78671;BME280;68277;52.724;6.516;2023-04-25T01:36:14;101007.97;;;5.27;88.94
78671;BME280;68277;52.724;6.516;2023-04-25T01:38:40;100971.22;;;5.06;89.47
78671;BME280;68277;52.724;6.516;2023-04-25T01:41:07;100947.53;;;4.83;89.45
78671;BME280;68277;52.724;6.516;2023-04-25T01:43:32;100977.31;;;5.00;90.00
78671;BME280;68277;52.724;6.516;2023-04-25T01:45:58;100953.69;;;4.87;89.16
78671;BME280;68277;52.724;6.516;2023-04-25T01:48:24;100989.56;;;5.01;88.43
78671;BME280;68277;52.724;6.516;2023-04-25T01:50:50;100998.31;;;5.06;89.00
78671;BME280;68277;52.724;6.516;2023-04-25T01:53:16;100993.94;;;5.08;88.02
78671;BME280;68277;52.724;6.516;2023-04-25T01:55:44;101022.84;;;5.26;88.75
78671;BME280;68277;52.724;6.516;2023-04-25T01:58:14;100956.31;;;4.87;88.27
78671;BME280;68277;52.724;6.516;2023-04-25T02:01:12;101020.22;;;5.25;87.09
78671;BME280;68277;52.724;6.516;2023-04-25T02:03:44;100972.03;;;4.93;87.12
78671;BME280;68277;52.724;6.516;2023-04-25T02:06:20;101033.34;;;5.26;87.41
78671;BME280;68277;52.724;6.516;2023-04-25T02:08:47;100973.81;;;4.94;87.25
78671;BME280;68277;52.724;6.516;2023-04-25T02:11:15;101000.03;;;5.03;85.81
78671;BME280;68277;52.724;6.516;2023-04-25T02:13:46;100981.69;;;5.03;86.26
78671;BME280;68277;52.724;6.516;2023-04-25T02:16:18;100948.44;;;4.87;84.99
78671;BME280;68277;52.724;6.516;2023-04-25T02:18:44;101015.84;;;5.24;85.31
78671;BME280;68277;52.724;6.516;2023-04-25T02:21:10;101032.47;;;5.33;84.54
78671;BME280;68277;52.724;6.516;2023-04-25T02:23:36;100981.69;;;5.03;82.72
78671;BME280;68277;52.724;6.516;2023-04-25T02:26:02;100957.19;;;4.92;83.23
78671;BME280;68277;52.724;6.516;2023-04-25T02:28:28;101006.22;;;5.20;83.71
78671;BME280;68277;52.724;6.516;2023-04-25T02:30:54;101018.47;;;5.22;84.38
78671;BME280;68277;52.724;6.516;2023-04-25T02:33:20;101034.25;;;5.34;83.84
78671;BME280;68277;52.724;6.516;2023-04-25T02:35:46;100986.94;;;5.07;83.69
78671;BME280;68277;52.724;6.516;2023-04-25T02:38:12;100991.31;;;5.08;83.06
78671;BME280;68277;52.724;6.516;2023-04-25T02:40:39;101042.09;;;5.36;82.20
78671;BME280;68277;52.724;6.516;2023-04-25T02:43:05;101023.69;;;5.16;82.32
78671;BME280;68277;52.724;6.516;2023-04-25T02:45:32;101022.78;;;5.11;81.93
78671;BME280;68277;52.724;6.516;2023-04-25T02:47:57;101014.06;;;5.06;83.23
78671;BME280;68277;52.724;6.516;2023-04-25T02:50:23;101000.88;;;4.91;82.63
78671;BME280;68277;52.724;6.516;2023-04-25T02:52:49;101058.69;;;5.24;81.31
78671;BME280;68277;52.724;6.516;2023-04-25T02:55:19;101031.50;;;5.04;82.56
78671;BME280;68277;52.724;6.516;2023-04-25T02:57:46;101058.66;;;5.18;83.74
78671;BME280;68277;52.724;6.516;2023-04-25T03:00:18;100999.97;;;4.88;83.75
78671;BME280;68277;52.724;6.516;2023-04-25T03:02:44;100985.09;;;4.73;81.71
78671;BME280;68277;52.724;6.516;2023-04-25T03:05:10;101062.19;;;5.17;81.48
78671;BME280;68277;52.724;6.516;2023-04-25T03:07:36;101057.78;;;5.16;80.54
78671;BME280;68277;52.724;6.516;2023-04-25T03:10:06;101031.50;;;5.00;77.83
78671;BME280;68277;52.724;6.516;2023-04-25T03:12:33;101066.53;;;5.18;81.43
78671;BME280;68277;52.724;6.516;2023-04-25T03:14:58;101050.75;;;5.09;77.44
78671;BME280;68277;52.724;6.516;2023-04-25T03:17:24;101056.06;;;5.15;76.69
78671;BME280;68277;52.724;6.516;2023-04-25T03:19:50;101006.97;;;4.84;78.46
78671;BME280;68277;52.724;6.516;2023-04-25T03:22:16;101035.03;;;5.03;78.17
78671;BME280;68277;52.724;6.516;2023-04-25T03:24:41;101042.88;;;4.99;79.82
78671;BME280;68277;52.724;6.516;2023-04-25T03:27:07;101062.16;;;5.13;80.35
78671;BME280;68277;52.724;6.516;2023-04-25T03:29:32;101013.09;;;4.83;80.50
78671;BME280;68277;52.724;6.516;2023-04-25T03:32:02;101005.22;;;4.75;80.98
78671;BME280;68277;52.724;6.516;2023-04-25T03:34:28;101038.47;;;4.93;81.76
78671;BME280;68277;52.724;6.516;2023-04-25T03:36:55;100988.53;;;4.57;81.38
78671;BME280;68277;52.724;6.516;2023-04-25T03:39:20;101070.00;;;5.07;82.20
78671;BME280;68277;52.724;6.516;2023-04-25T03:41:49;101053.34;;;4.93;82.02
78671;BME280;68277;52.724;6.516;2023-04-25T03:44:17;101074.34;;;4.96;82.95
78671;BME280;68277;52.724;6.516;2023-04-25T03:46:43;101095.38;;;5.11;82.30
78671;BME280;68277;52.724;6.516;2023-04-25T03:49:09;101096.25;;;5.08;80.94
78671;BME280;68277;52.724;6.516;2023-04-25T03:51:53;101071.69;;;4.93;79.87
78671;BME280;68277;52.724;6.516;2023-04-25T03:54:18;101070.78;;;4.88;80.69
78671;BME280;68277;52.724;6.516;2023-04-25T03:56:53;101066.38;;;4.80;81.24
78671;BME280;68277;52.724;6.516;2023-04-25T03:59:21;101059.41;;;4.79;80.63
78671;BME280;68277;52.724;6.516;2023-04-25T04:01:47;101074.28;;;4.83;80.97
78671;BME280;68277;52.724;6.516;2023-04-25T04:04:13;101067.25;;;4.76;80.64
78671;BME280;68277;52.724;6.516;2023-04-25T04:06:38;101056.69;;;4.64;80.91
78671;BME280;68277;52.724;6.516;2023-04-25T04:09:11;101100.53;;;4.90;80.40
78671;BME280;68277;52.724;6.516;2023-04-25T04:11:40;101077.72;;;4.72;81.06
78671;BME280;68277;52.724;6.516;2023-04-25T04:14:06;101055.78;;;4.55;81.17
78671;BME280;68277;52.724;6.516;2023-04-25T04:16:33;101116.28;;;4.90;79.96
78671;BME280;68277;52.724;6.516;2023-04-25T04:18:58;101050.50;;;4.47;79.97
78671;BME280;68277;52.724;6.516;2023-04-25T04:21:24;101111.84;;;4.81;79.95
78671;BME280;68277;52.724;6.516;2023-04-25T04:23:50;101060.97;;;4.44;80.22
78671;BME280;68277;52.724;6.516;2023-04-25T04:26:16;101116.19;;;4.76;80.75
78671;BME280;68277;52.724;6.516;2023-04-25T04:28:55;101071.50;;;4.52;81.84
78671;BME280;68277;52.724;6.516;2023-04-25T04:31:39;101073.22;;;4.47;80.75
78671;BME280;68277;52.724;6.516;2023-04-25T04:34:05;101104.78;;;4.68;81.63
78671;BME280;68277;52.724;6.516;2023-04-25T04:36:32;101144.22;;;4.86;82.01
78671;BME280;68277;52.724;6.516;2023-04-25T04:38:58;101111.78;;;4.73;82.77
78671;BME280;68277;52.724;6.516;2023-04-25T04:41:35;101091.59;;;4.57;82.51
78671;BME280;68277;52.724;6.516;2023-04-25T04:44:29;101126.69;;;4.77;81.42
78671;BME280;68277;52.724;6.516;2023-04-25T04:47:16;101097.75;;;4.56;80.22
78671;BME280;68277;52.724;6.516;2023-04-25T04:50:14;101141.59;;;4.88;79.43
78671;BME280;68277;52.724;6.516;2023-04-25T04:53:12;101103.88;;;4.58;80.19
78671;BME280;68277;52.724;6.516;2023-04-25T04:56:08;101147.66;;;4.80;80.99
78671;BME280;68277;52.724;6.516;2023-04-25T04:58:51;101139.78;;;4.74;82.50
78671;BME280;68277;52.724;6.516;2023-04-25T05:01:20;101150.28;;;4.73;83.24
78671;BME280;68277;52.724;6.516;2023-04-25T05:04:15;101135.34;;;4.64;82.23
78671;BME280;68277;52.724;6.516;2023-04-25T05:07:06;101110.81;;;4.52;82.61
78671;BME280;68277;52.724;6.516;2023-04-25T05:09:52;101143.31;;;4.78;82.26
78671;BME280;68277;52.724;6.516;2023-04-25T05:12:36;101158.25;;;4.90;82.88
78671;BME280;68277;52.724;6.516;2023-04-25T05:15:20;101133.69;;;4.78;83.15
78671;BME280;68277;52.724;6.516;2023-04-25T05:18:04;101152.09;;;4.86;82.72
78671;BME280;68277;52.724;6.516;2023-04-25T05:20:48;101165.25;;;4.95;82.19
78671;BME280;68277;52.724;6.516;2023-04-25T05:23:23;101171.44;;;5.08;83.53
78671;BME280;68277;52.724;6.516;2023-04-25T05:26:12;101174.91;;;5.05;82.35
78671;BME280;68277;52.724;6.516;2023-04-25T05:29:01;101145.16;;;4.96;82.34
78671;BME280;68277;52.724;6.516;2023-04-25T05:31:50;101170.56;;;5.07;82.40
78671;BME280;68277;52.724;6.516;2023-04-25T05:34:16;101133.78;;;4.95;82.30
78671;BME280;68277;52.724;6.516;2023-04-25T05:36:51;101175.00;;;5.16;82.47
78671;BME280;68277;52.724;6.516;2023-04-25T05:39:16;101168.84;;;5.14;82.73
78671;BME280;68277;52.724;6.516;2023-04-25T05:42:01;101111.09;;;5.09;81.70
78671;BME280;68277;52.724;6.516;2023-04-25T05:44:45;101161.19;;;5.70;79.96
78671;BME280;68277;52.724;6.516;2023-04-25T05:47:33;101141.13;;;5.90;78.59
78671;BME280;68277;52.724;6.516;2023-04-25T05:50:04;101191.06;;;6.58;77.82
78671;BME280;68277;52.724;6.516;2023-04-25T05:52:50;101193.44;;;7.62;73.82
78671;BME280;68277;52.724;6.516;2023-04-25T05:55:34;101193.63;;;7.11;73.43
78671;BME280;68277;52.724;6.516;2023-04-25T05:58:09;101167.41;;;6.52;75.56
78671;BME280;68277;52.724;6.516;2023-04-25T06:00:35;101205.09;;;6.61;76.30
78671;BME280;68277;52.724;6.516;2023-04-25T06:03:01;101207.72;;;6.46;77.35
78671;BME280;68277;52.724;6.516;2023-04-25T06:05:26;101191.94;;;6.19;76.77
78671;BME280;68277;52.724;6.516;2023-04-25T06:07:55;101159.44;;;5.81;78.45
78671;BME280;68277;52.724;6.516;2023-04-25T06:10:23;101189.28;;;5.96;78.52
78671;BME280;68277;52.724;6.516;2023-04-25T06:12:49;101177.00;;;5.85;78.21
78671;BME280;68277;52.724;6.516;2023-04-25T06:15:16;101214.69;;;6.00;79.14
78671;BME280;68277;52.724;6.516;2023-04-25T06:17:41;101189.22;;;5.83;79.77
78671;BME280;68277;52.724;6.516;2023-04-25T06:20:07;101190.16;;;5.86;77.62
78671;BME280;68277;52.724;6.516;2023-04-25T06:22:33;101172.56;;;5.73;79.17
78671;BME280;68277;52.724;6.516;2023-04-25T06:24:59;101184.91;;;5.86;78.14
78671;BME280;68277;52.724;6.516;2023-04-25T06:27:28;101210.31;;;6.07;78.79
78671;BME280;68277;52.724;6.516;2023-04-25T06:29:53;101231.38;;;6.20;77.87
78671;BME280;68277;52.724;6.516;2023-04-25T06:32:19;101178.78;;;5.99;76.31
78671;BME280;68277;52.724;6.516;2023-04-25T06:34:46;101184.06;;;6.11;74.53
78671;BME280;68277;52.724;6.516;2023-04-25T06:37:11;101222.63;;;6.41;75.52
78671;BME280;68277;52.724;6.516;2023-04-25T06:39:37;101178.81;;;6.19;76.22
78671;BME280;68277;52.724;6.516;2023-04-25T06:42:03;101238.38;;;6.50;75.26
78671;BME280;68277;52.724;6.516;2023-04-25T06:44:50;101177.94;;;6.28;76.94
78671;BME280;68277;52.724;6.516;2023-04-25T06:47:17;101183.19;;;6.64;74.16
78671;BME280;68277;52.724;6.516;2023-04-25T06:49:43;101170.88;;;6.69;73.03
78671;BME280;68277;52.724;6.516;2023-04-25T06:52:09;101251.53;;;7.03;72.21
78671;BME280;68277;52.724;6.516;2023-04-25T06:54:36;101229.63;;;6.87;73.88
78671;BME280;68277;52.724;6.516;2023-04-25T06:57:24;101255.00;;;7.14;70.59
78671;BME280;68277;52.724;6.516;2023-04-25T06:59:51;101236.63;;;7.05;71.38
78671;BME280;68277;52.724;6.516;2023-04-25T07:02:16;101215.56;;;7.04;70.51
78671;BME280;68277;52.724;6.516;2023-04-25T07:04:42;101149.88;;;6.70;70.57
78671;BME280;68277;52.724;6.516;2023-04-25T07:07:08;101219.91;;;7.20;68.80
78671;BME280;68277;52.724;6.516;2023-04-25T07:09:41;101173.47;;;7.01;70.08
78671;BME280;68277;52.724;6.516;2023-04-25T07:12:07;101207.59;;;7.32;68.83
78671;BME280;68277;52.724;6.516;2023-04-25T07:14:33;101247.91;;;7.52;67.98
78671;BME280;68277;52.724;6.516;2023-04-25T07:16:59;101268.97;;;7.48;66.41
78671;BME280;68277;52.724;6.516;2023-04-25T07:19:26;101263.75;;;7.36;70.27
78671;BME280;68277;52.724;6.516;2023-04-25T07:21:57;101262.91;;;7.22;68.71
78671;BME280;68277;52.724;6.516;2023-04-25T07:24:23;101280.41;;;7.30;70.67
78671;BME280;68277;52.724;6.516;2023-04-25T07:26:49;101228.75;;;6.84;66.67
78671;BME280;68277;52.724;6.516;2023-04-25T07:29:35;101273.44;;;7.10;68.61
78671;BME280;68277;52.724;6.516;2023-04-25T07:32:03;101227.88;;;6.80;67.46
78671;BME280;68277;52.724;6.516;2023-04-25T07:34:28;101258.56;;;6.98;70.53
78671;BME280;68277;52.724;6.516;2023-04-25T07:36:55;101238.41;;;6.74;69.03
78671;BME280;68277;52.724;6.516;2023-04-25T07:39:22;101284.84;;;6.95;71.37
78671;BME280;68277;52.724;6.516;2023-04-25T07:41:48;101283.03;;;7.45;68.81
78671;BME280;68277;52.724;6.516;2023-04-25T07:44:20;101259.31;;;7.45;70.88
78671;BME280;68277;52.724;6.516;2023-04-25T07:46:46;101256.66;;;7.56;67.57
78671;BME280;68277;52.724;6.516;2023-04-25T07:49:12;101251.94;;;8.27;66.65
78671;BME280;68277;52.724;6.516;2023-04-25T07:51:39;101287.97;;;9.36;64.79
78671;BME280;68277;52.724;6.516;2023-04-25T07:54:12;101261.19;;;9.67;65.00
78671;BME280;68277;52.724;6.516;2023-04-25T07:56:43;101281.97;;;11.60;60.95
78671;BME280;68277;52.724;6.516;2023-04-25T07:59:08;101277.41;;;13.23;49.89
78671;BME280;68277;52.724;6.516;2023-04-25T08:01:34;101265.75;;;14.19;47.43
78671;BME280;68277;52.724;6.516;2023-04-25T08:04:02;101276.00;;;14.62;44.96
78671;BME280;68277;52.724;6.516;2023-04-25T08:06:47;101309.31;;;13.86;44.31
78671;BME280;68277;52.724;6.516;2023-04-25T08:09:22;101271.28;;;11.64;54.49
78671;BME280;68277;52.724;6.516;2023-04-25T08:11:48;101266.41;;;10.40;56.72
78671;BME280;68277;52.724;6.516;2023-04-25T08:14:16;101287.03;;;10.16;61.70
78671;BME280;68277;52.724;6.516;2023-04-25T08:16:43;101276.25;;;9.60;60.64
78671;BME280;68277;52.724;6.516;2023-04-25T08:19:10;101281.97;;;9.19;63.25
78671;BME280;68277;52.724;6.516;2023-04-25T08:21:36;101283.22;;;8.80;63.51
78671;BME280;68277;52.724;6.516;2023-04-25T08:24:05;101326.53;;;8.52;65.04
78671;BME280;68277;52.724;6.516;2023-04-25T08:26:35;101296.91;;;7.96;66.73
78671;BME280;68277;52.724;6.516;2023-04-25T08:29:02;101360.16;;;8.00;66.56
78671;BME280;68277;52.724;6.516;2023-04-25T08:31:28;101379.56;;;7.65;67.71
78671;BME280;68277;52.724;6.516;2023-04-25T08:33:57;101311.19;;;6.71;71.09
78671;BME280;68277;52.724;6.516;2023-04-25T08:36:32;101344.47;;;6.72;71.50
78671;BME280;68277;52.724;6.516;2023-04-25T08:38:59;101375.13;;;6.53;74.00
78671;BME280;68277;52.724;6.516;2023-04-25T08:41:25;101343.44;;;6.06;74.56
78671;BME280;68277;52.724;6.516;2023-04-25T08:43:53;101364.47;;;6.05;77.58
78671;BME280;68277;52.724;6.516;2023-04-25T08:46:19;101397.84;;;6.29;75.54
78671;BME280;68277;52.724;6.516;2023-04-25T08:49:00;101354.88;;;6.22;74.72
78671;BME280;68277;52.724;6.516;2023-04-25T08:51:26;101340.06;;;6.48;74.62
78671;BME280;68277;52.724;6.516;2023-04-25T08:53:53;101315.53;;;6.63;73.18
78671;BME280;68277;52.724;6.516;2023-04-25T08:56:19;101390.13;;;7.34;73.57
78671;BME280;68277;52.724;6.516;2023-04-25T08:58:48;101395.38;;;7.65;69.34
78671;BME280;68277;52.724;6.516;2023-04-25T09:01:17;101318.91;;;7.89;68.11
78671;BME280;68277;52.724;6.516;2023-04-25T09:03:48;101356.97;;;9.90;60.68
78671;BME280;68277;52.724;6.516;2023-04-25T09:06:16;101330.50;;;11.15;55.65
78671;BME280;68277;52.724;6.516;2023-04-25T09:08:43;101356.81;;;11.77;52.83
78671;BME280;68277;52.724;6.516;2023-04-25T09:11:09;101367.09;;;11.92;52.90
78671;BME280;68277;52.724;6.516;2023-04-25T09:13:34;101364.69;;;11.30;56.17
78671;BME280;68277;52.724;6.516;2023-04-25T09:16:22;101349.81;;;10.65;62.42
78671;BME280;68277;52.724;6.516;2023-04-25T09:19:24;101376.91;;;10.85;61.31
78671;BME280;68277;52.724;6.516;2023-04-25T09:21:54;101339.31;;;10.62;61.94
78671;BME280;68277;52.724;6.516;2023-04-25T09:27:03;101388.78;;;10.57;59.74
78671;BME280;68277;52.724;6.516;2023-04-25T09:29:34;101401.63;;;10.85;61.21
78671;BME280;68277;52.724;6.516;2023-04-25T09:32:22;101395.63;;;11.29;57.63
78671;BME280;68277;52.724;6.516;2023-04-25T09:34:55;101382.75;;;11.58;58.63
78671;BME280;68277;52.724;6.516;2023-04-25T09:37:27;101362.97;;;11.78;62.54
78671;BME280;68277;52.724;6.516;2023-04-25T09:40:22;101353.97;;;11.86;55.08
78671;BME280;68277;52.724;6.516;2023-04-25T09:42:55;101398.66;;;12.07;54.75
78671;BME280;68277;52.724;6.516;2023-04-25T09:45:23;101382.63;;;12.12;53.71
78671;BME280;68277;52.724;6.516;2023-04-25T09:47:48;101362.09;;;11.27;55.90
78671;BME280;68277;52.724;6.516;2023-04-25T09:50:20;101382.09;;;10.92;54.20
78671;BME280;68277;52.724;6.516;2023-04-25T09:53:04;101400.78;;;11.87;55.90
78671;BME280;68277;52.724;6.516;2023-04-25T09:55:45;101395.66;;;12.22;50.28
78671;BME280;68277;52.724;6.516;2023-04-25T09:58:11;101379.94;;;12.15;54.14
78671;BME280;68277;52.724;6.516;2023-04-25T10:00:37;101388.50;;;12.29;50.28
78671;BME280;68277;52.724;6.516;2023-04-25T10:03:18;101411.69;;;12.19;50.90
78671;BME280;68277;52.724;6.516;2023-04-25T10:06:14;101405.19;;;12.34;51.98
78671;BME280;68277;52.724;6.516;2023-04-25T10:08:43;101376.03;;;11.88;54.97
78671;BME280;68277;52.724;6.516;2023-04-25T10:11:10;101387.88;;;11.69;56.05
78671;BME280;68277;52.724;6.516;2023-04-25T10:13:40;101372.06;;;11.61;54.05
78671;BME280;68277;52.724;6.516;2023-04-25T10:16:05;101368.84;;;11.46;53.13
78671;BME280;68277;52.724;6.516;2023-04-25T10:18:32;101444.75;;;10.90;53.53
78671;BME280;68277;52.724;6.516;2023-04-25T10:21:00;101429.41;;;9.72;60.00
78671;BME280;68277;52.724;6.516;2023-04-25T10:23:27;101442.53;;;8.60;64.29
78671;BME280;68277;52.724;6.516;2023-04-25T10:25:53;101453.22;;;8.17;66.22
78671;BME280;68277;52.724;6.516;2023-04-25T10:28:19;101476.06;;;8.18;66.32
78671;BME280;68277;52.724;6.516;2023-04-25T10:31:01;101476.06;;;8.11;65.03
78671;BME280;68277;52.724;6.516;2023-04-25T10:33:41;101469.03;;;8.19;63.80
78671;BME280;68277;52.724;6.516;2023-04-25T10:36:12;101473.38;;;8.46;65.24
78671;BME280;68277;52.724;6.516;2023-04-25T10:38:42;101466.28;;;8.64;64.80
78671;BME280;68277;52.724;6.516;2023-04-25T10:41:10;101451.06;;;9.09;64.63
78671;BME280;68277;52.724;6.516;2023-04-25T10:43:43;101438.00;;;9.95;61.64
78671;BME280;68277;52.724;6.516;2023-04-25T10:48:55;101468.47;;;11.01;60.04
78671;BME280;68277;52.724;6.516;2023-04-25T10:56:23;101430.47;;;11.57;59.84
78671;BME280;68277;52.724;6.516;2023-04-25T10:58:49;101412.72;;;11.62;56.96
78671;BME280;68277;52.724;6.516;2023-04-25T11:01:19;101447.16;;;12.14;56.04
78671;BME280;68277;52.724;6.516;2023-04-25T11:03:46;101430.25;;;12.18;57.26
78671;BME280;68277;52.724;6.516;2023-04-25T11:06:58;101466.09;;;11.96;48.89
78671;BME280;68277;52.724;6.516;2023-04-25T11:09:26;101456.84;;;11.68;54.08
78671;BME280;68277;52.724;6.516;2023-04-25T11:11:56;101461.31;;;11.62;51.43
78671;BME280;68277;52.724;6.516;2023-04-25T11:14:23;101450.53;;;11.75;52.17
78671;BME280;68277;52.724;6.516;2023-04-25T11:16:59;101476.78;;;11.36;49.91
78671;BME280;68277;52.724;6.516;2023-04-25T11:19:26;101453.25;;;11.15;53.19
78671;BME280;68277;52.724;6.516;2023-04-25T11:21:56;101442.44;;;10.68;51.22
78671;BME280;68277;52.724;6.516;2023-04-25T11:24:27;101441.66;;;10.61;53.31
78671;BME280;68277;52.724;6.516;2023-04-25T11:26:57;101411.97;;;11.00;51.78
78671;BME280;68277;52.724;6.516;2023-04-25T11:29:26;101446.63;;;11.43;50.73
78671;BME280;68277;52.724;6.516;2023-04-25T11:31:53;101438.63;;;11.46;51.13
78671;BME280;68277;52.724;6.516;2023-04-25T11:34:21;101444.72;;;11.51;51.90
78671;BME280;68277;52.724;6.516;2023-04-25T11:36:47;101474.50;;;11.68;50.10
78671;BME280;68277;52.724;6.516;2023-04-25T11:39:13;101472.56;;;11.78;50.65
78671;BME280;68277;52.724;6.516;2023-04-25T11:41:41;101439.09;;;11.73;52.14
78671;BME280;68277;52.724;6.516;2023-04-25T11:44:07;101436.81;;;11.99;49.27
78671;BME280;68277;52.724;6.516;2023-04-25T11:46:36;101442.34;;;11.88;49.89
78671;BME280;68277;52.724;6.516;2023-04-25T11:49:02;101470.09;;;11.66;50.55
78671;BME280;68277;52.724;6.516;2023-04-25T11:51:29;101466.75;;;12.07;53.05
78671;BME280;68277;52.724;6.516;2023-04-25T11:53:55;101459.72;;;12.49;50.56
78671;BME280;68277;52.724;6.516;2023-04-25T11:56:20;101453.06;;;11.82;48.23
78671;BME280;68277;52.724;6.516;2023-04-25T11:58:59;101483.84;;;11.36;48.53
78671;BME280;68277;52.724;6.516;2023-04-25T12:01:30;101493.34;;;10.89;49.77
78671;BME280;68277;52.724;6.516;2023-04-25T12:04:13;101499.88;;;10.64;49.75
78671;BME280;68277;52.724;6.516;2023-04-25T12:06:40;101446.00;;;9.88;52.36
78671;BME280;68277;52.724;6.516;2023-04-25T12:09:11;101487.97;;;10.24;52.81
78671;BME280;68277;52.724;6.516;2023-04-25T12:11:45;101451.19;;;10.76;50.16
78671;BME280;68277;52.724;6.516;2023-04-25T12:14:12;101429.34;;;11.20;46.48
78671;BME280;68277;52.724;6.516;2023-04-25T12:16:46;101449.78;;;11.65;51.19
78671;BME280;68277;52.724;6.516;2023-04-25T12:19:14;101477.88;;;11.78;51.24
78671;BME280;68277;52.724;6.516;2023-04-25T12:21:40;101508.84;;;11.17;52.36
78671;BME280;68277;52.724;6.516;2023-04-25T12:24:14;101500.81;;;10.59;54.25
78671;BME280;68277;52.724;6.516;2023-04-25T12:26:50;101527.47;;;11.14;53.57
78671;BME280;68277;52.724;6.516;2023-04-25T12:29:18;101516.75;;;11.79;52.60
78671;BME280;68277;52.724;6.516;2023-04-25T12:31:44;101496.44;;;11.78;52.34
78671;BME280;68277;52.724;6.516;2023-04-25T12:34:10;101510.03;;;11.55;48.94
78671;BME280;68277;52.724;6.516;2023-04-25T12:36:36;101475.22;;;11.22;51.58
78671;BME280;68277;52.724;6.516;2023-04-25T12:39:02;101531.56;;;11.34;51.53
78671;BME280;68277;52.724;6.516;2023-04-25T12:41:31;101486.84;;;11.12;46.47
78671;BME280;68277;52.724;6.516;2023-04-25T12:43:56;101528.81;;;11.40;49.65
78671;BME280;68277;52.724;6.516;2023-04-25T12:46:22;101496.63;;;11.64;49.47
78671;BME280;68277;52.724;6.516;2023-04-25T12:48:50;101528.53;;;12.15;49.88
78671;BME280;68277;52.724;6.516;2023-04-25T12:51:16;101513.09;;;11.86;49.71
78671;BME280;68277;52.724;6.516;2023-04-25T12:53:41;101487.22;;;11.45;47.41
78671;BME280;68277;52.724;6.516;2023-04-25T12:56:07;101484.69;;;11.38;47.01
78671;BME280;68277;52.724;6.516;2023-04-25T12:58:33;101513.94;;;11.88;50.46
78671;BME280;68277;52.724;6.516;2023-04-25T13:00:59;101530.50;;;12.02;48.98
78671;BME280;68277;52.724;6.516;2023-04-25T13:03:24;101517.66;;;11.78;49.40
78671;BME280;68277;52.724;6.516;2023-04-25T13:05:51;101499.75;;;11.91;48.40
78671;BME280;68277;52.724;6.516;2023-04-25T13:08:21;101532.34;;;12.48;47.02
78671;BME280;68277;52.724;6.516;2023-04-25T13:10:49;101520.53;;;12.16;48.19
78671;BME280;68277;52.724;6.516;2023-04-25T13:13:15;101550.16;;;11.91;49.86
78671;BME280;68277;52.724;6.516;2023-04-25T13:15:41;101579.03;;;10.84;52.17
78671;BME280;68277;52.724;6.516;2023-04-25T13:18:07;101588.44;;;10.27;54.92
78671;BME280;68277;52.724;6.516;2023-04-25T13:20:33;101579.03;;;9.93;56.80
78671;BME280;68277;52.724;6.516;2023-04-25T13:22:58;101542.44;;;9.37;56.89